October 20, 2014
Temp
 
59.0 °F
 
Dew Pt.
 
54.8 °F
 
Humidity
 
86%
 
Pressure
 
1012.2 hPa 
  steady
Wind
 
0.0 mph 
    E
Rain
 
0.00 in 
  0.00 in/hr
UV index
 
0.0  
 
Solar rad.
 
0 W/m²
 
Today

Patchy Fog
Patchy
Fog
Tonight

Partly Cloudy
Partly
Cloudy
Hi 78 °F Lo 57 °F
Statistics - 10/20/2014
Max Temp 63.1 °F  12:00 am
Min Temp 59.0 °F  5:55 am
Max Dew Pt 58.0 °F  12:05 am
Min Dew Pt 54.5 °F  5:15 am
Max Pressure 1012.2 hPa  5:55 am
Min Pressure 1011.3 hPa  4:10 am
Max Wind 1 mph  2:30 am
Max UV —   —
Max Solar —   —
Max Rainfall Rate —   —
Total Precipitation —   
Current Temp 59.0 °F  5:55 am
Temp 24hr ago 57.6 °F  5:55 am
Difference +1.4 °F  
Temp Rate 0.0 °F/hr  
Pressure Rate +0.6 hPa/hr  
time temp dew pt pressure uv solar wind wind speed rainfall rate
00:00 63.0 °F 58.1 °F 1011.8 hPa  Calm    
00:05 62.9 °F 58.0 °F 1011.8 hPa  W 1 mph   
00:10 62.9 °F 57.7 °F 1011.9 hPa  Calm    
00:15 62.7 °F 57.5 °F 1011.9 hPa  Calm    
00:20 62.5 °F 57.3 °F 1011.9 hPa  Calm    
00:25 62.4 °F 57.2 °F 1011.9 hPa  W 1 mph   
00:30 62.3 °F 57.1 °F 1011.9 hPa  Calm    
00:35 62.2 °F 57.0 °F 1011.9 hPa  W 1 mph   
00:40 62.1 °F 56.9 °F 1011.9 hPa  W 1 mph   
00:45 62.0 °F 56.8 °F 1011.9 hPa  Calm    
00:50 61.9 °F 56.7 °F 1011.9 hPa  Calm    
00:55 61.8 °F 56.6 °F 1012.0 hPa  Calm    
01:00 61.7 °F 56.5 °F 1012.0 hPa  Calm    
01:05 61.6 °F 56.7 °F 1012.0 hPa  Calm    
01:10 61.5 °F 56.6 °F 1012.0 hPa  Calm    
01:15 61.4 °F 56.5 °F 1011.9 hPa  Calm    
01:20 61.4 °F 56.5 °F 1011.9 hPa  Calm    
01:25 61.4 °F 56.5 °F 1011.9 hPa  Calm    
01:30 61.3 °F 56.4 °F 1011.8 hPa  Calm    
01:35 61.2 °F 56.3 °F 1011.8 hPa  Calm    
01:40 61.1 °F 56.2 °F 1011.8 hPa  NE 1 mph   
01:45 61.0 °F 56.1 °F 1011.9 hPa  Calm    
01:50 60.9 °F 56.0 °F 1011.9 hPa  NNE 1 mph   
01:55 60.8 °F 55.9 °F 1012.0 hPa  NW 1 mph   
02:00 60.8 °F 55.9 °F 1012.0 hPa  Calm    
02:05 60.7 °F 55.8 °F 1011.9 hPa  Calm    
02:10 60.7 °F 55.8 °F 1011.9 hPa  ENE 1 mph   
02:15 60.5 °F 55.6 °F 1011.9 hPa  ENE 1 mph   
02:20 60.5 °F 55.6 °F 1011.8 hPa  ENE 1 mph   
02:25 60.4 °F 55.5 °F 1011.8 hPa  ENE 1 mph   
02:30 60.4 °F 55.5 °F 1011.7 hPa  ENE 1 mph   
02:35 60.3 °F 55.4 °F 1011.6 hPa  Calm    
02:40 60.3 °F 55.4 °F 1011.6 hPa  Calm    
02:45 60.2 °F 55.3 °F 1011.6 hPa  Calm    
02:50 60.2 °F 55.3 °F 1011.5 hPa  Calm    
02:55 60.2 °F 55.3 °F 1011.5 hPa  Calm    
03:00 60.2 °F 55.3 °F 1011.5 hPa  Calm    
03:05 60.1 °F 55.2 °F 1011.6 hPa  Calm    
03:10 60.1 °F 55.2 °F 1011.6 hPa  Calm    
03:15 60.1 °F 55.6 °F 1011.5 hPa  Calm    
03:20 60.0 °F 55.5 °F 1011.5 hPa  Calm    
03:25 60.0 °F 55.5 °F 1011.5 hPa  Calm    
03:30 60.0 °F 55.5 °F 1011.4 hPa  Calm    
03:35 60.0 °F 55.5 °F 1011.4 hPa  Calm    
03:40 60.0 °F 55.5 °F 1011.4 hPa  Calm    
03:45 60.0 °F 55.5 °F 1011.4 hPa  Calm    
03:50 60.0 °F 55.5 °F 1011.5 hPa  Calm    
03:55 60.0 °F 55.5 °F 1011.4 hPa  Calm    
04:00 59.9 °F 55.4 °F 1011.4 hPa  Calm    
04:05 59.8 °F 55.3 °F 1011.3 hPa  Calm    
04:10 59.8 °F 55.3 °F 1011.3 hPa  Calm    
04:15 59.8 °F 55.3 °F 1011.4 hPa  Calm    
04:20 59.7 °F 55.2 °F 1011.4 hPa  Calm    
04:25 59.7 °F 55.2 °F 1011.5 hPa  Calm    
04:30 59.7 °F 55.2 °F 1011.5 hPa  Calm    
04:35 59.7 °F 55.5 °F 1011.5 hPa  Calm    
04:40 59.7 °F 55.5 °F 1011.6 hPa  Calm    
04:45 59.6 °F 55.4 °F 1011.6 hPa  Calm    
04:50 59.6 °F 55.4 °F 1011.5 hPa  Calm    
04:55 59.5 °F 55.3 °F 1011.6 hPa  Calm    
05:00 59.4 °F 55.2 °F 1011.6 hPa  Calm    
05:05 59.3 °F 54.8 °F 1011.8 hPa  Calm    
05:10 59.1 °F 54.6 °F 1011.8 hPa  Calm    
05:15 59.0 °F 54.5 °F 1011.7 hPa  Calm    
05:20 59.0 °F 54.8 °F 1011.8 hPa  Calm    
05:25 59.0 °F 54.8 °F 1011.8 hPa  Calm    
05:30 59.0 °F 54.8 °F 1011.9 hPa  Calm    
05:35 59.0 °F 54.8 °F 1012.0 hPa  Calm    
05:40 59.0 °F 54.8 °F 1012.0 hPa  Calm    
05:45 59.0 °F 54.8 °F 1012.1 hPa  Calm    
05:50 59.0 °F 54.8 °F 1012.1 hPa  Calm    
05:55 59.0 °F 54.8 °F 1012.2 hPa  Calm